Details From LSGG - Geneva
To LSZG - Grenchen
Flight Number -
Tags Generated
Created
Modified
Stats Distance 78 nm / 145 km
Max Altitude 0 ft / 0 m
Waypoints 2
Social Downloads 1
Likes 0
Share VATSIM

Download

Looking for another format? Having issues loading an existing format? Contact us
Advertisement - Login to hide

Notes

Generated

Route

LSGG LSZG

ID Type Via Altitude Latitude Longitude Leg Dist Tot Dist Heading (true) Name
O LSGG APT - 0 ft / 0 m 46.23482˚ 6.09953˚ - 0 nm - -
O LSZG APT - 0 ft / 0 m 47.17952˚ 7.41212˚ 78 nm 78 nm 43° / 44° -

Altitude Profile

Advertisement - Login to hide

LSGG

Details ICAO LSGG (GVA)
Name Geneva
Region Switzerland
Timezone Europe/Zurich (UTC+1.0)
Stats Elevation 1,410 ft / 430 m (AMSL)
Location 46.237755° 6.106173°
Runways 2
Magnetic Variation 1.738° E

METAR

LSGG 161450Z 24003KT 9999 FEW035 04/M01 Q1015 NOSIG

Decode

TAF

TAF TAF LSGG 161425Z 1615/1721 24006KT 9999 FEW025 BKN050 TX05/1615Z TNM01/1705Z TX03/1714Z TEMPO 1618/1624 3000 -SHSN BKN014

Decode

Departure Runways

ID Width Length Bearing (true) Bearing (mag) Surface Threshold Offset Overrun Length
05 180 ft / 55 m 12,796 ft / 3,900 m 45.43° 43.69° Concrete 1,079 ft / 329 m 66 ft / 20 m
05L 98 ft / 30 m 2,701 ft / 823 m 45.44° 43.70° Grass 610 ft / 186 m 0 ft / 0 m
23 180 ft / 55 m 12,796 ft / 3,900 m 225.45° 223.71° Concrete 0 ft / 0 m 66 ft / 20 m
23R 98 ft / 30 m 2,701 ft / 823 m 225.45° 223.71° Grass 997 ft / 304 m 0 ft / 0 m

LSZG

Details ICAO LSZG
Name Grenchen
Region Switzerland
Timezone Europe/Zurich (UTC+1.0)
Stats Elevation 1,411 ft / 430 m (AMSL)
Location 47.181591° 7.415841°
Runways 2
Magnetic Variation 2.060° E

METAR

LSZG 161450Z 22007KT 9999 BKN030 SCT050 BKN070 04/M02 Q1014 NOSIG

Decode

TAF

Not found

Destination Runways

ID Width Length Bearing (true) Bearing (mag) Surface Threshold Offset Overrun Length
07C 75 ft / 23 m 3,273 ft / 998 m 65.56° 63.50° Asphalt 443 ft / 135 m 0 ft / 0 m
07L 98 ft / 30 m 1,637 ft / 499 m 66.08° 64.02° Grass 213 ft / 65 m 0 ft / 0 m
25C 75 ft / 23 m 3,273 ft / 998 m 245.56° 243.50° Asphalt 0 ft / 0 m 0 ft / 0 m
25R 98 ft / 30 m 1,637 ft / 499 m 246.08° 244.02° Grass 85 ft / 26 m 0 ft / 0 m